sensor_id;sensor_type;location;lat;lon;timestamp;pressure;altitude;pressure_sealevel;temperature;humidity
13050;BME280;6591;51.446;5.404;2023-07-16T00:01:05;100598.41;;;21.61;54.58
13050;BME280;6591;51.446;5.404;2023-07-16T00:03:32;100592.44;;;21.58;54.78
13050;BME280;6591;51.446;5.404;2023-07-16T00:05:59;100602.81;;;21.52;54.91
13050;BME280;6591;51.446;5.404;2023-07-16T00:08:27;100607.53;;;21.50;55.15
13050;BME280;6591;51.446;5.404;2023-07-16T00:10:54;100599.84;;;21.46;55.01
13050;BME280;6591;51.446;5.404;2023-07-16T00:13:21;100608.25;;;21.43;55.33
13050;BME280;6591;51.446;5.404;2023-07-16T00:15:48;100607.53;;;21.41;55.03
13050;BME280;6591;51.446;5.404;2023-07-16T00:18:15;100604.16;;;21.39;55.00
13050;BME280;6591;51.446;5.404;2023-07-16T00:20:42;100611.53;;;21.37;55.26
13050;BME280;6591;51.446;5.404;2023-07-16T00:23:10;100602.75;;;21.35;54.79
13050;BME280;6591;51.446;5.404;2023-07-16T00:25:37;100603.88;;;21.32;55.32
13050;BME280;6591;51.446;5.404;2023-07-16T00:28:04;100610.13;;;21.33;55.19
13050;BME280;6591;51.446;5.404;2023-07-16T00:30:32;100606.69;;;21.31;55.20
13050;BME280;6591;51.446;5.404;2023-07-16T00:32:59;100605.72;;;21.32;55.56
13050;BME280;6591;51.446;5.404;2023-07-16T00:35:26;100604.72;;;21.33;55.76
13050;BME280;6591;51.446;5.404;2023-07-16T00:37:53;100611.84;;;21.34;55.71
13050;BME280;6591;51.446;5.404;2023-07-16T00:40:20;100610.69;;;21.36;55.60
13050;BME280;6591;51.446;5.404;2023-07-16T00:42:47;100606.72;;;21.40;55.93
13050;BME280;6591;51.446;5.404;2023-07-16T00:45:14;100609.97;;;21.44;55.78
13050;BME280;6591;51.446;5.404;2023-07-16T00:47:43;100608.81;;;21.46;55.60
13050;BME280;6591;51.446;5.404;2023-07-16T00:50:12;100603.25;;;21.48;55.90
13050;BME280;6591;51.446;5.404;2023-07-16T00:52:40;100611.78;;;21.53;55.79
13050;BME280;6591;51.446;5.404;2023-07-16T00:55:08;100601.84;;;21.53;55.78
13050;BME280;6591;51.446;5.404;2023-07-16T00:57:37;100606.94;;;21.56;56.00
13050;BME280;6591;51.446;5.404;2023-07-16T01:00:05;100604.41;;;21.55;55.88
13050;BME280;6591;51.446;5.404;2023-07-16T01:02:33;100611.50;;;21.56;55.69
13050;BME280;6591;51.446;5.404;2023-07-16T01:05:01;100608.94;;;21.54;55.55
13050;BME280;6591;51.446;5.404;2023-07-16T01:07:31;100603.69;;;21.53;55.58
13050;BME280;6591;51.446;5.404;2023-07-16T01:10:01;100608.09;;;21.54;55.50
13050;BME280;6591;51.446;5.404;2023-07-16T01:12:32;100604.69;;;21.52;55.54
13050;BME280;6591;51.446;5.404;2023-07-16T01:14:59;100606.69;;;21.50;55.55
13050;BME280;6591;51.446;5.404;2023-07-16T01:17:27;100605.84;;;21.49;55.67
13050;BME280;6591;51.446;5.404;2023-07-16T01:19:55;100602.28;;;21.49;55.71
13050;BME280;6591;51.446;5.404;2023-07-16T01:22:35;100604.25;;;21.47;55.70
13050;BME280;6591;51.446;5.404;2023-07-16T01:28:11;100597.31;;;21.44;56.05
13050;BME280;6591;51.446;5.404;2023-07-16T01:30:44;100597.16;;;21.46;56.09
13050;BME280;6591;51.446;5.404;2023-07-16T01:33:15;100602.53;;;21.46;55.65
13050;BME280;6591;51.446;5.404;2023-07-16T01:35:48;100606.09;;;21.46;56.19
13050;BME280;6591;51.446;5.404;2023-07-16T01:38:19;100603.25;;;21.48;55.91
13050;BME280;6591;51.446;5.404;2023-07-16T01:40:47;100603.25;;;21.48;56.10
13050;BME280;6591;51.446;5.404;2023-07-16T01:43:15;100604.97;;;21.49;56.08
13050;BME280;6591;51.446;5.404;2023-07-16T01:45:42;100604.97;;;21.49;55.99
13050;BME280;6591;51.446;5.404;2023-07-16T01:48:36;100608.97;;;21.45;56.28
13050;BME280;6591;51.446;5.404;2023-07-16T01:51:05;100617.50;;;21.50;56.05
13050;BME280;6591;51.446;5.404;2023-07-16T01:53:32;100614.63;;;21.51;56.53
13050;BME280;6591;51.446;5.404;2023-07-16T01:56:03;100608.22;;;21.52;56.13
13050;BME280;6591;51.446;5.404;2023-07-16T01:58:30;100611.66;;;21.54;56.13
13050;BME280;6591;51.446;5.404;2023-07-16T02:00:58;100602.69;;;21.54;56.32
13050;BME280;6591;51.446;5.404;2023-07-16T02:03:25;100600.97;;;21.53;56.61
13050;BME280;6591;51.446;5.404;2023-07-16T02:05:52;100592.88;;;21.53;56.33
13050;BME280;6591;51.446;5.404;2023-07-16T02:08:19;100605.38;;;21.54;56.35
13050;BME280;6591;51.446;5.404;2023-07-16T02:10:50;100605.53;;;21.52;56.32
13050;BME280;6591;51.446;5.404;2023-07-16T02:13:18;100609.81;;;21.55;56.64
13050;BME280;6591;51.446;5.404;2023-07-16T02:15:45;100615.34;;;21.53;56.80
13050;BME280;6591;51.446;5.404;2023-07-16T02:18:14;100609.81;;;21.55;56.82
13050;BME280;6591;51.446;5.404;2023-07-16T02:20:43;100602.69;;;21.54;56.54
13050;BME280;6591;51.446;5.404;2023-07-16T02:23:10;100610.66;;;21.55;56.62
13050;BME280;6591;51.446;5.404;2023-07-16T02:25:38;100617.75;;;21.56;56.93
13050;BME280;6591;51.446;5.404;2023-07-16T02:28:05;100616.91;;;21.56;56.81
13050;BME280;6591;51.446;5.404;2023-07-16T02:30:32;100616.75;;;21.58;56.93
13050;BME280;6591;51.446;5.404;2023-07-16T02:32:59;100622.03;;;21.59;56.82
13050;BME280;6591;51.446;5.404;2023-07-16T02:35:27;100621.03;;;21.60;56.58
13050;BME280;6591;51.446;5.404;2023-07-16T02:37:54;100630.00;;;21.61;57.02
13050;BME280;6591;51.446;5.404;2023-07-16T02:40:22;100624.72;;;21.59;57.23
13050;BME280;6591;51.446;5.404;2023-07-16T02:42:49;100625.59;;;21.60;56.75
13050;BME280;6591;51.446;5.404;2023-07-16T02:45:18;100626.44;;;21.60;56.91
13050;BME280;6591;51.446;5.404;2023-07-16T02:47:45;100629.41;;;21.57;56.35
13050;BME280;6591;51.446;5.404;2023-07-16T02:50:15;100634.53;;;21.60;56.55
13050;BME280;6591;51.446;5.404;2023-07-16T02:52:42;100627.72;;;21.56;56.65
13050;BME280;6591;51.446;5.404;2023-07-16T02:55:10;100638.25;;;21.59;56.58
13050;BME280;6591;51.446;5.404;2023-07-16T02:57:40;100636.53;;;21.58;56.85
13050;BME280;6591;51.446;5.404;2023-07-16T03:00:08;100641.06;;;21.58;56.96
13050;BME280;6591;51.446;5.404;2023-07-16T03:02:35;100638.69;;;21.54;56.53
13050;BME280;6591;51.446;5.404;2023-07-16T03:05:03;100646.66;;;21.56;56.50
13050;BME280;6591;51.446;5.404;2023-07-16T03:07:30;100637.09;;;21.52;56.82
13050;BME280;6591;51.446;5.404;2023-07-16T03:09:58;100645.50;;;21.49;56.37
13050;BME280;6591;51.446;5.404;2023-07-16T03:12:25;100645.66;;;21.47;56.32
13050;BME280;6591;51.446;5.404;2023-07-16T03:14:54;100651.34;;;21.44;56.43
13050;BME280;6591;51.446;5.404;2023-07-16T03:17:22;100649.09;;;21.40;56.09
13050;BME280;6591;51.446;5.404;2023-07-16T03:19:49;100663.59;;;21.39;56.20
13050;BME280;6591;51.446;5.404;2023-07-16T03:22:17;100658.75;;;21.33;56.01
13050;BME280;6591;51.446;5.404;2023-07-16T03:24:44;100659.31;;;21.27;56.17
13050;BME280;6591;51.446;5.404;2023-07-16T03:27:11;100664.03;;;21.25;55.80
13050;BME280;6591;51.446;5.404;2023-07-16T03:29:50;100666.44;;;21.18;55.98
13050;BME280;6591;51.446;5.404;2023-07-16T03:32:18;100661.44;;;21.13;55.71
13050;BME280;6591;51.446;5.404;2023-07-16T03:34:46;100658.13;;;21.10;55.80
13050;BME280;6591;51.446;5.404;2023-07-16T03:37:13;100662.97;;;21.06;55.48
13050;BME280;6591;51.446;5.404;2023-07-16T03:39:40;100667.09;;;21.01;55.73
13050;BME280;6591;51.446;5.404;2023-07-16T03:42:08;100672.91;;;20.96;55.38
13050;BME280;6591;51.446;5.404;2023-07-16T03:44:38;100669.78;;;20.91;55.74
13050;BME280;6591;51.446;5.404;2023-07-16T03:47:05;100674.88;;;20.85;55.75
13050;BME280;6591;51.446;5.404;2023-07-16T03:49:33;100675.00;;;20.83;55.55
13050;BME280;6591;51.446;5.404;2023-07-16T03:52:00;100674.56;;;20.78;55.85
13050;BME280;6591;51.446;5.404;2023-07-16T03:54:27;100679.97;;;20.78;55.63
13050;BME280;6591;51.446;5.404;2023-07-16T03:56:55;100689.34;;;20.74;55.71
13050;BME280;6591;51.446;5.404;2023-07-16T03:59:24;100690.50;;;20.71;55.66
13050;BME280;6591;51.446;5.404;2023-07-16T04:01:51;100696.75;;;20.72;55.41
13050;BME280;6591;51.446;5.404;2023-07-16T04:04:20;100689.63;;;20.71;55.53
13050;BME280;6591;51.446;5.404;2023-07-16T04:06:47;100691.59;;;20.69;55.73
13050;BME280;6591;51.446;5.404;2023-07-16T04:09:14;100695.03;;;20.71;55.54
13050;BME280;6591;51.446;5.404;2023-07-16T04:11:41;100702.16;;;20.72;55.69
13050;BME280;6591;51.446;5.404;2023-07-16T04:14:09;100719.19;;;20.73;55.51
13050;BME280;6591;51.446;5.404;2023-07-16T04:16:36;100728.84;;;20.75;55.41
13050;BME280;6591;51.446;5.404;2023-07-16T04:19:04;100725.41;;;20.73;55.30
13050;BME280;6591;51.446;5.404;2023-07-16T04:21:32;100726.28;;;20.73;55.20
13050;BME280;6591;51.446;5.404;2023-07-16T04:23:59;100723.75;;;20.72;55.38
13050;BME280;6591;51.446;5.404;2023-07-16T04:26:26;100726.44;;;20.72;55.49
13050;BME280;6591;51.446;5.404;2023-07-16T04:28:56;100730.69;;;20.75;55.03
13050;BME280;6591;51.446;5.404;2023-07-16T04:31:24;100726.03;;;20.77;55.25
13050;BME280;6591;51.446;5.404;2023-07-16T04:33:51;100739.66;;;20.75;55.13
13050;BME280;6591;51.446;5.404;2023-07-16T04:36:18;100742.47;;;20.73;55.13
13050;BME280;6591;51.446;5.404;2023-07-16T04:38:45;100749.72;;;20.73;55.55
13050;BME280;6591;51.446;5.404;2023-07-16T04:41:12;100747.00;;;20.73;55.37
13050;BME280;6591;51.446;5.404;2023-07-16T04:43:40;100746.75;;;20.76;55.24
13050;BME280;6591;51.446;5.404;2023-07-16T04:46:07;100742.34;;;20.75;54.95
13050;BME280;6591;51.446;5.404;2023-07-16T04:48:34;100753.00;;;20.77;55.42
13050;BME280;6591;51.446;5.404;2023-07-16T04:51:01;100761.69;;;20.80;55.17
13050;BME280;6591;51.446;5.404;2023-07-16T04:53:29;100757.88;;;20.83;55.55
13050;BME280;6591;51.446;5.404;2023-07-16T04:55:56;100753.03;;;20.86;55.22
13050;BME280;6591;51.446;5.404;2023-07-16T04:58:24;100756.31;;;20.90;55.50
13050;BME280;6591;51.446;5.404;2023-07-16T05:00:52;100750.34;;;20.96;55.43
13050;BME280;6591;51.446;5.404;2023-07-16T05:03:22;100757.34;;;20.98;55.17
13050;BME280;6591;51.446;5.404;2023-07-16T05:05:50;100767.31;;;21.07;55.61
13050;BME280;6591;51.446;5.404;2023-07-16T05:08:18;100765.03;;;21.12;55.20
13050;BME280;6591;51.446;5.404;2023-07-16T05:10:45;100762.81;;;21.18;54.91
13050;BME280;6591;51.446;5.404;2023-07-16T05:13:12;100768.66;;;21.23;55.34
13050;BME280;6591;51.446;5.404;2023-07-16T05:15:45;100762.81;;;21.27;55.00
13050;BME280;6591;51.446;5.404;2023-07-16T05:18:13;100769.50;;;21.33;54.97
13050;BME280;6591;51.446;5.404;2023-07-16T05:20:46;100773.38;;;21.40;54.79
13050;BME280;6591;51.446;5.404;2023-07-16T05:23:14;100764.66;;;21.46;54.96
13050;BME280;6591;51.446;5.404;2023-07-16T05:25:50;100763.56;;;21.48;54.91
13050;BME280;6591;51.446;5.404;2023-07-16T05:28:18;100770.78;;;21.58;54.95
13050;BME280;6591;51.446;5.404;2023-07-16T05:30:45;100770.25;;;21.64;55.15
13050;BME280;6591;51.446;5.404;2023-07-16T05:33:15;100774.22;;;21.69;54.75
13050;BME280;6591;51.446;5.404;2023-07-16T05:35:48;100780.06;;;21.74;54.73
13050;BME280;6591;51.446;5.404;2023-07-16T05:38:17;100773.94;;;21.82;54.48
13050;BME280;6591;51.446;5.404;2023-07-16T05:40:44;100779.47;;;21.90;54.79
13050;BME280;6591;51.446;5.404;2023-07-16T05:43:11;100778.81;;;21.98;54.31
13050;BME280;6591;51.446;5.404;2023-07-16T05:45:38;100781.63;;;22.06;54.13
13050;BME280;6591;51.446;5.404;2023-07-16T05:48:06;100777.19;;;22.14;54.16
13050;BME280;6591;51.446;5.404;2023-07-16T05:50:33;100781.88;;;22.22;54.07
13050;BME280;6591;51.446;5.404;2023-07-16T05:53:00;100777.28;;;22.32;53.88
13050;BME280;6591;51.446;5.404;2023-07-16T05:55:28;100781.81;;;22.41;53.74
13050;BME280;6591;51.446;5.404;2023-07-16T05:57:55;100784.66;;;22.49;53.59
13050;BME280;6591;51.446;5.404;2023-07-16T06:00:22;100777.50;;;22.58;53.31
13050;BME280;6591;51.446;5.404;2023-07-16T06:02:53;100788.59;;;22.64;52.81
13050;BME280;6591;51.446;5.404;2023-07-16T06:05:22;100798.41;;;22.75;53.03
13050;BME280;6591;51.446;5.404;2023-07-16T06:07:49;100810.78;;;22.87;53.13
13050;BME280;6591;51.446;5.404;2023-07-16T06:10:17;100810.72;;;22.97;52.29
13050;BME280;6591;51.446;5.404;2023-07-16T06:12:45;100811.81;;;23.04;52.27
13050;BME280;6591;51.446;5.404;2023-07-16T06:15:15;100820.72;;;23.14;52.23
13050;BME280;6591;51.446;5.404;2023-07-16T06:17:45;100819.00;;;23.22;52.03
13050;BME280;6591;51.446;5.404;2023-07-16T06:20:14;100813.50;;;23.32;51.97
13050;BME280;6591;51.446;5.404;2023-07-16T06:22:41;100827.00;;;23.42;52.20
13050;BME280;6591;51.446;5.404;2023-07-16T06:25:09;100811.53;;;23.52;51.13
13050;BME280;6591;51.446;5.404;2023-07-16T06:27:38;100822.63;;;23.58;51.24
13050;BME280;6591;51.446;5.404;2023-07-16T06:30:09;100823.56;;;23.67;51.56
13050;BME280;6591;51.446;5.404;2023-07-16T06:32:37;100829.63;;;23.79;51.40
13050;BME280;6591;51.446;5.404;2023-07-16T06:35:05;100821.84;;;23.84;51.32
13050;BME280;6591;51.446;5.404;2023-07-16T06:37:32;100823.09;;;23.89;50.99
13050;BME280;6591;51.446;5.404;2023-07-16T06:40:00;100823.16;;;23.97;51.09
13050;BME280;6591;51.446;5.404;2023-07-16T06:42:28;100828.81;;;24.04;51.07
13050;BME280;6591;51.446;5.404;2023-07-16T06:44:55;100824.63;;;24.10;50.79
13050;BME280;6591;51.446;5.404;2023-07-16T06:47:22;100829.84;;;24.21;50.82
13050;BME280;6591;51.446;5.404;2023-07-16T06:49:49;100833.84;;;24.34;51.05
13050;BME280;6591;51.446;5.404;2023-07-16T06:52:24;100836.63;;;24.42;50.84
13050;BME280;6591;51.446;5.404;2023-07-16T06:54:54;100837.03;;;24.56;50.57
13050;BME280;6591;51.446;5.404;2023-07-16T06:57:26;100842.53;;;24.64;50.06
13050;BME280;6591;51.446;5.404;2023-07-16T06:59:57;100845.28;;;24.72;49.63
13050;BME280;6591;51.446;5.404;2023-07-16T07:02:26;100846.88;;;24.82;49.93
13050;BME280;6591;51.446;5.404;2023-07-16T07:04:57;100844.25;;;24.91;49.77
13050;BME280;6591;51.446;5.404;2023-07-16T07:07:40;100844.28;;;24.99;49.48
13050;BME280;6591;51.446;5.404;2023-07-16T07:10:35;100846.38;;;25.13;49.75
13050;BME280;6591;51.446;5.404;2023-07-16T07:13:08;100845.78;;;25.27;49.25
13050;BME280;6591;51.446;5.404;2023-07-16T07:15:36;100846.66;;;25.36;48.81
13050;BME280;6591;51.446;5.404;2023-07-16T07:18:06;100856.38;;;25.46;48.59
13050;BME280;6591;51.446;5.404;2023-07-16T07:20:34;100853.66;;;25.54;48.64
13050;BME280;6591;51.446;5.404;2023-07-16T07:23:03;100854.91;;;25.60;48.30
13050;BME280;6591;51.446;5.404;2023-07-16T07:25:32;100863.78;;;25.70;48.93
13050;BME280;6591;51.446;5.404;2023-07-16T07:28:03;100862.94;;;25.78;48.26
13050;BME280;6591;51.446;5.404;2023-07-16T07:30:30;100857.84;;;25.83;47.86
13050;BME280;6591;51.446;5.404;2023-07-16T07:32:58;100869.94;;;25.88;47.78
13050;BME280;6591;51.446;5.404;2023-07-16T07:35:31;100868.06;;;25.97;47.61
13050;BME280;6591;51.446;5.404;2023-07-16T07:37:58;100876.25;;;26.05;47.86
13050;BME280;6591;51.446;5.404;2023-07-16T07:40:26;100878.97;;;26.13;47.44
13050;BME280;6591;51.446;5.404;2023-07-16T07:42:54;100877.81;;;26.24;47.34
13050;BME280;6591;51.446;5.404;2023-07-16T07:45:25;100878.84;;;26.31;46.62
13050;BME280;6591;51.446;5.404;2023-07-16T07:47:55;100892.47;;;26.39;47.06
13050;BME280;6591;51.446;5.404;2023-07-16T07:50:22;100880.88;;;26.45;46.71
13050;BME280;6591;51.446;5.404;2023-07-16T07:52:51;100874.75;;;26.51;46.74
13050;BME280;6591;51.446;5.404;2023-07-16T07:55:18;100882.25;;;26.57;47.41
13050;BME280;6591;51.446;5.404;2023-07-16T07:57:46;100882.75;;;26.69;46.96
13050;BME280;6591;51.446;5.404;2023-07-16T08:00:16;100880.00;;;26.77;46.78
13050;BME280;6591;51.446;5.404;2023-07-16T08:02:45;100880.81;;;26.85;46.06
13050;BME280;6591;51.446;5.404;2023-07-16T08:05:13;100881.88;;;26.92;46.04
13050;BME280;6591;51.446;5.404;2023-07-16T08:07:44;100878.09;;;27.02;45.96
13050;BME280;6591;51.446;5.404;2023-07-16T08:10:21;100880.44;;;27.13;45.69
13050;BME280;6591;51.446;5.404;2023-07-16T08:12:49;100886.31;;;27.32;46.29
13050;BME280;6591;51.446;5.404;2023-07-16T08:15:21;100873.66;;;27.48;45.70
13050;BME280;6591;51.446;5.404;2023-07-16T08:17:56;100885.47;;;27.71;46.04
13050;BME280;6591;51.446;5.404;2023-07-16T08:20:29;100887.09;;;27.88;45.22
13050;BME280;6591;51.446;5.404;2023-07-16T08:22:57;100884.44;;;28.03;44.60
13050;BME280;6591;51.446;5.404;2023-07-16T08:25:25;100886.94;;;28.12;45.01
13050;BME280;6591;51.446;5.404;2023-07-16T08:27:56;100879.47;;;28.29;44.54
13050;BME280;6591;51.446;5.404;2023-07-16T08:30:27;100884.69;;;28.39;44.56
13050;BME280;6591;51.446;5.404;2023-07-16T08:32:55;100889.53;;;28.51;44.41
13050;BME280;6591;51.446;5.404;2023-07-16T08:35:24;100889.09;;;28.62;43.79
13050;BME280;6591;51.446;5.404;2023-07-16T08:37:52;100892.06;;;28.76;43.57
13050;BME280;6591;51.446;5.404;2023-07-16T08:40:19;100896.88;;;28.88;43.73
13050;BME280;6591;51.446;5.404;2023-07-16T08:42:49;100890.28;;;28.97;42.87
13050;BME280;6591;51.446;5.404;2023-07-16T08:45:25;100885.84;;;29.11;43.53
13050;BME280;6591;51.446;5.404;2023-07-16T08:47:55;100893.00;;;29.27;42.75
13050;BME280;6591;51.446;5.404;2023-07-16T08:50:24;100901.44;;;29.40;42.73
13050;BME280;6591;51.446;5.404;2023-07-16T08:52:53;100896.13;;;29.53;42.06
13050;BME280;6591;51.446;5.404;2023-07-16T08:55:21;100908.03;;;29.60;41.68
13050;BME280;6591;51.446;5.404;2023-07-16T08:57:50;100922.56;;;29.61;41.08
13050;BME280;6591;51.446;5.404;2023-07-16T09:00:18;100899.34;;;29.57;40.35
13050;BME280;6591;51.446;5.404;2023-07-16T09:02:47;100901.59;;;29.53;40.98
13050;BME280;6591;51.446;5.404;2023-07-16T09:05:20;100916.13;;;29.54;39.86
13050;BME280;6591;51.446;5.404;2023-07-16T09:08:05;100913.78;;;29.51;39.83
13050;BME280;6591;51.446;5.404;2023-07-16T09:10:36;100916.13;;;29.54;40.63
13050;BME280;6591;51.446;5.404;2023-07-16T09:13:05;100918.97;;;29.60;40.56
13050;BME280;6591;51.446;5.404;2023-07-16T09:15:38;100919.44;;;29.64;40.47
13050;BME280;6591;51.446;5.404;2023-07-16T09:18:08;100921.13;;;29.65;40.32
13050;BME280;6591;51.446;5.404;2023-07-16T09:20:40;100907.44;;;29.65;40.26
13050;BME280;6591;51.446;5.404;2023-07-16T09:23:08;100916.97;;;29.69;40.36
13050;BME280;6591;51.446;5.404;2023-07-16T09:25:36;100916.00;;;29.76;40.10
13050;BME280;6591;51.446;5.404;2023-07-16T09:28:07;100927.06;;;29.83;40.00
13050;BME280;6591;51.446;5.404;2023-07-16T09:30:35;100913.06;;;29.93;39.92
13050;BME280;6591;51.446;5.404;2023-07-16T09:33:19;100930.38;;;29.93;39.63
13050;BME280;6591;51.446;5.404;2023-07-16T09:35:49;100922.16;;;29.93;39.19
13050;BME280;6591;51.446;5.404;2023-07-16T09:38:21;100931.66;;;29.97;39.39
13050;BME280;6591;51.446;5.404;2023-07-16T09:40:52;100930.81;;;29.97;39.41
13050;BME280;6591;51.446;5.404;2023-07-16T09:43:19;100929.19;;;30.02;39.55
13050;BME280;6591;51.446;5.404;2023-07-16T09:45:48;100931.78;;;30.10;39.62
13050;BME280;6591;51.446;5.404;2023-07-16T09:48:15;100932.53;;;30.19;39.77
13050;BME280;6591;51.446;5.404;2023-07-16T09:50:51;100938.91;;;30.26;39.20
13050;BME280;6591;51.446;5.404;2023-07-16T09:53:20;100936.69;;;30.36;39.25
13050;BME280;6591;51.446;5.404;2023-07-16T09:55:48;100942.25;;;30.43;38.54
13050;BME280;6591;51.446;5.404;2023-07-16T09:58:19;100941.09;;;30.52;38.67
13050;BME280;6591;51.446;5.404;2023-07-16T10:00:51;100944.94;;;30.57;38.18
13050;BME280;6591;51.446;5.404;2023-07-16T10:03:19;100951.53;;;30.63;38.09
13050;BME280;6591;51.446;5.404;2023-07-16T10:05:46;100950.06;;;30.60;37.90
13050;BME280;6591;51.446;5.404;2023-07-16T10:08:24;100952.72;;;30.54;37.95
13050;BME280;6591;51.446;5.404;2023-07-16T10:10:56;100962.91;;;30.60;37.99
13050;BME280;6591;51.446;5.404;2023-07-16T10:13:28;100964.13;;;30.57;37.76
13050;BME280;6591;51.446;5.404;2023-07-16T10:15:59;100969.03;;;30.62;37.88
13050;BME280;6591;51.446;5.404;2023-07-16T10:18:31;100966.69;;;30.59;37.61
13050;BME280;6591;51.446;5.404;2023-07-16T10:21:06;100977.00;;;30.57;37.53
13050;BME280;6591;51.446;5.404;2023-07-16T10:23:43;100977.00;;;30.57;37.18
13050;BME280;6591;51.446;5.404;2023-07-16T10:26:14;100973.81;;;30.53;37.73
13050;BME280;6591;51.446;5.404;2023-07-16T10:28:46;100981.66;;;30.56;37.79
13050;BME280;6591;51.446;5.404;2023-07-16T10:31:36;100975.31;;;30.56;38.40
13050;BME280;6591;51.446;5.404;2023-07-16T10:34:07;100983.84;;;30.67;38.15
13050;BME280;6591;51.446;5.404;2023-07-16T10:36:42;100990.69;;;30.78;37.99
13050;BME280;6591;51.446;5.404;2023-07-16T10:39:22;100984.25;;;30.86;37.50
13050;BME280;6591;51.446;5.404;2023-07-16T10:41:53;100985.84;;;31.01;37.61
13050;BME280;6591;51.446;5.404;2023-07-16T10:44:27;100984.91;;;31.16;37.27
13050;BME280;6591;51.446;5.404;2023-07-16T10:46:55;100988.16;;;31.26;36.98
13050;BME280;6591;51.446;5.404;2023-07-16T10:49:28;100991.38;;;31.36;37.13
13050;BME280;6591;51.446;5.404;2023-07-16T10:52:01;100980.66;;;31.41;36.66
13050;BME280;6591;51.446;5.404;2023-07-16T10:54:31;100998.03;;;31.48;36.61
13050;BME280;6591;51.446;5.404;2023-07-16T10:57:04;101002.28;;;31.50;36.59
13050;BME280;6591;51.446;5.404;2023-07-16T10:59:40;101008.75;;;31.43;35.61
13050;BME280;6591;51.446;5.404;2023-07-16T11:02:22;101002.97;;;31.31;36.25
13050;BME280;6591;51.446;5.404;2023-07-16T11:04:57;101001.63;;;31.21;36.13
13050;BME280;6591;51.446;5.404;2023-07-16T11:07:37;101008.34;;;31.11;36.03
13050;BME280;6591;51.446;5.404;2023-07-16T11:10:05;101019.25;;;31.05;36.09
13050;BME280;6591;51.446;5.404;2023-07-16T11:12:38;101023.81;;;30.98;36.36
13050;BME280;6591;51.446;5.404;2023-07-16T11:15:10;101024.38;;;30.93;35.83
13050;BME280;6591;51.446;5.404;2023-07-16T11:17:51;101020.75;;;30.86;36.07
13050;BME280;6591;51.446;5.404;2023-07-16T11:20:30;101029.59;;;30.82;35.65
13050;BME280;6591;51.446;5.404;2023-07-16T11:23:01;101039.63;;;30.75;36.37
13050;BME280;6591;51.446;5.404;2023-07-16T11:25:34;101028.31;;;30.63;35.79
13050;BME280;6591;51.446;5.404;2023-07-16T11:28:16;101033.38;;;30.59;36.75
13050;BME280;6591;51.446;5.404;2023-07-16T11:30:55;101034.41;;;30.58;36.74
13050;BME280;6591;51.446;5.404;2023-07-16T11:33:37;101034.84;;;30.62;35.98
13050;BME280;6591;51.446;5.404;2023-07-16T11:36:13;101030.69;;;30.66;36.53
13050;BME280;6591;51.446;5.404;2023-07-16T11:39:15;101029.66;;;30.67;36.12
13050;BME280;6591;51.446;5.404;2023-07-16T11:42:51;101034.75;;;30.70;36.63
13050;BME280;6591;51.446;5.404;2023-07-16T11:45:25;101028.31;;;30.84;36.47
13050;BME280;6591;51.446;5.404;2023-07-16T11:47:54;101030.97;;;30.99;36.64
13050;BME280;6591;51.446;5.404;2023-07-16T11:50:22;101033.63;;;31.07;36.35
13050;BME280;6591;51.446;5.404;2023-07-16T11:52:53;101031.31;;;31.10;36.41
13050;BME280;6591;51.446;5.404;2023-07-16T11:55:21;101043.34;;;31.09;36.11
13050;BME280;6591;51.446;5.404;2023-07-16T11:57:49;101043.66;;;31.00;35.42
13050;BME280;6591;51.446;5.404;2023-07-16T12:00:16;101051.97;;;30.85;35.03
13050;BME280;6591;51.446;5.404;2023-07-16T12:02:45;101054.34;;;30.67;35.41
13050;BME280;6591;51.446;5.404;2023-07-16T12:05:21;101058.81;;;30.53;35.80
13050;BME280;6591;51.446;5.404;2023-07-16T12:08:08;101060.44;;;30.48;36.35
13050;BME280;6591;51.446;5.404;2023-07-16T12:10:42;101046.63;;;30.56;36.72
13050;BME280;6591;51.446;5.404;2023-07-16T12:13:10;101054.78;;;30.70;36.41
13050;BME280;6591;51.446;5.404;2023-07-16T12:15:37;101043.88;;;30.77;36.10
13050;BME280;6591;51.446;5.404;2023-07-16T12:18:05;101044.41;;;30.87;36.08
13050;BME280;6591;51.446;5.404;2023-07-16T12:20:34;101042.78;;;30.93;36.04
13050;BME280;6591;51.446;5.404;2023-07-16T12:23:01;101057.59;;;30.98;36.34
13050;BME280;6591;51.446;5.404;2023-07-16T12:25:30;101044.00;;;30.90;35.48
13050;BME280;6591;51.446;5.404;2023-07-16T12:28:00;101064.50;;;30.73;35.84
13050;BME280;6591;51.446;5.404;2023-07-16T12:30:31;101068.38;;;30.43;35.98
13050;BME280;6591;51.446;5.404;2023-07-16T12:32:58;101074.69;;;30.07;37.09
13050;BME280;6591;51.446;5.404;2023-07-16T12:35:28;101075.59;;;29.85;37.48
13050;BME280;6591;51.446;5.404;2023-07-16T12:37:55;101083.34;;;29.67;37.87
13050;BME280;6591;51.446;5.404;2023-07-16T12:40:25;101077.75;;;29.60;38.72
13050;BME280;6591;51.446;5.404;2023-07-16T12:42:53;101073.72;;;29.71;38.81
13050;BME280;6591;51.446;5.404;2023-07-16T12:45:20;101071.44;;;29.89;39.32
13050;BME280;6591;51.446;5.404;2023-07-16T12:47:47;101067.13;;;30.09;39.31
13050;BME280;6591;51.446;5.404;2023-07-16T12:50:16;101076.31;;;30.38;38.97
13050;BME280;6591;51.446;5.404;2023-07-16T12:52:43;101072.09;;;30.71;39.06
13050;BME280;6591;51.446;5.404;2023-07-16T12:55:10;101080.47;;;31.05;39.52
13050;BME280;6591;51.446;5.404;2023-07-16T12:57:37;101080.75;;;31.38;38.24
13050;BME280;6591;51.446;5.404;2023-07-16T13:00:05;101063.25;;;31.67;38.32
13050;BME280;6591;51.446;5.404;2023-07-16T13:02:33;101072.53;;;32.01;37.45
13050;BME280;6591;51.446;5.404;2023-07-16T13:05:00;101072.03;;;32.25;36.66
13050;BME280;6591;51.446;5.404;2023-07-16T13:07:30;101079.28;;;32.46;36.63
13050;BME280;6591;51.446;5.404;2023-07-16T13:10:09;101074.47;;;32.61;35.88
13050;BME280;6591;51.446;5.404;2023-07-16T13:12:49;101072.44;;;32.76;35.90
13050;BME280;6591;51.446;5.404;2023-07-16T13:15:20;101073.50;;;32.95;35.43
13050;BME280;6591;51.446;5.404;2023-07-16T13:17:49;101079.03;;;33.14;34.68